Time;durP1;ratioP1;P1;durP2;ratioP2;P2;SDS_P1;SDS_P2;PMS_P1;PMS_P2;Temp;Humidity;BMP_temperature;BMP_pressure;BME280_temperature;BME280_humidity;BME280_pressure;Samples;Min_cycle;Max_cycle;Signal;HPM_P1;HPM_P2
2022/06/29 00:00:09;;;;;;;4.47;2.07;;;14.80;99.90;;;;;;4981968;28;20053;-80
2022/06/29 00:02:35;;;;;;;6.57;2.40;;;14.80;99.90;;;;;;4989568;28;20080;-81
2022/06/29 00:05:02;;;;;;;6.23;2.00;;;14.80;99.90;;;;;;5000001;28;20038;-80
2022/06/29 00:07:27;;;;;;;4.37;1.90;;;14.80;99.90;;;;;;5004390;28;20046;-79
2022/06/29 00:09:53;;;;;;;5.90;2.17;;;14.80;99.90;;;;;;4996855;28;20056;-81
2022/06/29 00:12:19;;;;;;;7.63;2.40;;;14.80;99.90;;;;;;5002498;28;20051;-80
2022/06/29 00:14:45;;;;;;;7.53;2.30;;;14.80;99.90;;;;;;5003685;28;20041;-79
2022/06/29 00:17:12;;;;;;;9.33;2.80;;;14.80;99.90;;;;;;5006107;28;20041;-80
2022/06/29 00:19:39;;;;;;;7.17;2.30;;;14.80;99.90;;;;;;5009426;28;20658;-80
2022/06/29 00:22:05;;;;;;;7.07;2.50;;;14.80;99.90;;;;;;5000822;28;20038;-80
2022/06/29 00:24:31;;;;;;;6.00;2.20;;;14.70;99.90;;;;;;4998021;28;20072;-80
2022/06/29 00:26:56;;;;;;;4.27;1.87;;;14.70;99.90;;;;;;5007414;28;20041;-80
2022/06/29 00:29:22;;;;;;;4.67;2.30;;;14.70;99.90;;;;;;5003014;28;20092;-80
2022/06/29 00:31:48;;;;;;;5.20;2.10;;;14.70;99.90;;;;;;4997308;28;20087;-80
2022/06/29 00:34:15;;;;;;;6.23;2.50;;;14.70;99.90;;;;;;4994744;28;20415;-80
2022/06/29 00:36:41;;;;;;;6.53;2.40;;;14.70;99.90;;;;;;4988855;28;20132;-80
2022/06/29 00:39:07;;;;;;;7.10;2.43;;;14.70;99.90;;;;;;4995888;28;20124;-80
2022/06/29 00:41:36;;;;;;;4.60;2.43;;;14.70;99.90;;;;;;4979882;28;20095;-80
2022/06/29 00:44:02;;;;;;;4.47;2.30;;;14.60;99.90;;;;;;5007745;28;20041;-80
2022/06/29 00:46:29;;;;;;;6.43;2.30;;;14.60;99.90;;;;;;4986356;28;20070;-80
2022/06/29 00:48:54;;;;;;;5.27;2.87;;;14.60;99.90;;;;;;5012247;28;20132;-80
2022/06/29 00:51:22;;;;;;;9.70;3.00;;;14.60;99.90;;;;;;4990703;28;20109;-80
2022/06/29 00:53:50;;;;;;;6.70;2.50;;;14.60;99.90;;;;;;5006382;28;20503;-80
2022/06/29 00:56:19;;;;;;;7.03;2.97;;;14.60;99.90;;;;;;5003409;28;20038;-79
2022/06/29 00:58:46;;;;;;;6.23;2.43;;;14.50;99.90;;;;;;5006843;28;20057;-80
2022/06/29 01:01:14;;;;;;;7.03;2.73;;;14.50;99.90;;;;;;5000288;28;20046;-79
2022/06/29 01:03:40;;;;;;;6.43;3.27;;;14.50;99.90;;;;;;4989638;28;20080;-79
2022/06/29 01:06:06;;;;;;;5.17;2.93;;;14.50;99.90;;;;;;4983921;28;20480;-80
2022/06/29 01:08:33;;;;;;;4.23;2.43;;;14.50;99.90;;;;;;4990513;28;20136;-80
2022/06/29 01:10:59;;;;;;;6.50;2.73;;;14.50;99.90;;;;;;5004753;28;20112;-80
2022/06/29 01:13:24;;;;;;;6.43;3.00;;;14.40;99.90;;;;;;4988507;28;20042;-81
2022/06/29 01:15:50;;;;;;;5.33;2.77;;;14.40;99.90;;;;;;4993862;28;20478;-81
2022/06/29 01:18:16;;;;;;;6.20;2.90;;;14.40;99.90;;;;;;5002528;28;20076;-80
2022/06/29 01:20:42;;;;;;;7.20;2.80;;;14.40;99.90;;;;;;5013704;28;20045;-79
2022/06/29 01:23:09;;;;;;;6.43;2.60;;;14.40;99.90;;;;;;4980929;28;20077;-80
2022/06/29 01:25:35;;;;;;;4.90;2.90;;;14.40;99.90;;;;;;4988069;28;20053;-80
2022/06/29 01:28:01;;;;;;;6.43;3.07;;;14.30;99.90;;;;;;4981672;28;20050;-79
2022/06/29 01:30:27;;;;;;;6.70;3.20;;;14.30;99.90;;;;;;5019162;28;20046;-79
2022/06/29 01:32:52;;;;;;;3.87;2.80;;;14.30;99.90;;;;;;5001359;28;20126;-80
2022/06/29 01:35:22;;;;;;;5.03;3.30;;;14.30;99.90;;;;;;5000296;28;20488;-80
2022/06/29 01:37:48;;;;;;;8.60;3.20;;;14.30;99.90;;;;;;5006311;28;20049;-79
2022/06/29 01:40:15;;;;;;;8.17;3.50;;;14.30;99.90;;;;;;4990106;28;20045;-80
2022/06/29 01:42:41;;;;;;;4.27;3.40;;;14.30;99.90;;;;;;4988154;28;20049;-79
2022/06/29 01:45:08;;;;;;;8.90;3.53;;;14.30;99.90;;;;;;5012154;28;20422;-80
2022/06/29 01:47:34;;;;;;;5.00;3.40;;;14.30;99.90;;;;;;5006771;28;20049;-80
2022/06/29 01:50:00;;;;;;;6.27;3.53;;;14.30;99.90;;;;;;5014765;28;20435;-80
2022/06/29 01:52:25;;;;;;;7.77;4.00;;;14.30;99.90;;;;;;4979814;28;20052;-81
2022/06/29 01:54:51;;;;;;;7.87;4.10;;;14.30;99.90;;;;;;4990318;28;20052;-80
2022/06/29 01:57:18;;;;;;;6.40;3.43;;;14.30;99.90;;;;;;4989618;28;20128;-80
2022/06/29 01:59:44;;;;;;;6.27;4.40;;;14.30;99.90;;;;;;5011710;28;20145;-80
2022/06/29 02:02:10;;;;;;;7.43;3.80;;;14.20;99.90;;;;;;5014412;28;20124;-81
2022/06/29 02:04:36;;;;;;;7.37;4.10;;;14.20;99.90;;;;;;4998064;28;20108;-80
2022/06/29 02:07:01;;;;;;;7.33;3.90;;;14.20;99.90;;;;;;4986528;28;20050;-80
2022/06/29 02:09:27;;;;;;;7.13;4.07;;;14.20;99.90;;;;;;4972481;28;20038;-79
2022/06/29 02:11:53;;;;;;;4.87;3.93;;;14.20;99.90;;;;;;5019298;28;20087;-79
2022/06/29 02:14:20;;;;;;;5.57;4.10;;;14.20;99.90;;;;;;4984347;28;20038;-80
2022/06/29 02:16:46;;;;;;;5.00;4.00;;;14.20;99.90;;;;;;4982564;28;20037;-79
2022/06/29 02:19:11;;;;;;;6.07;4.03;;;14.20;99.90;;;;;;5005761;28;20415;-80
2022/06/29 02:21:37;;;;;;;9.23;4.03;;;14.20;99.90;;;;;;4988326;28;20514;-80
2022/06/29 02:24:04;;;;;;;6.97;4.50;;;14.20;99.90;;;;;;4994970;28;20116;-80
2022/06/29 02:26:29;;;;;;;7.30;4.17;;;14.20;99.90;;;;;;4969411;28;20069;-80
2022/06/29 02:28:57;;;;;;;7.07;4.50;;;14.20;99.90;;;;;;4997100;28;20186;-79
2022/06/29 02:36:52;;;;;;;;;;;14.10;99.90;;;;;;5027882;28;20050;-79
2022/06/29 02:39:18;;;;;;;7.53;4.37;;;14.10;99.90;;;;;;5025829;28;19917;-79
2022/06/29 02:41:44;;;;;;;4.80;3.57;;;14.10;99.90;;;;;;5004159;28;20041;-80
2022/06/29 02:44:09;;;;;;;7.53;4.00;;;14.10;99.90;;;;;;4985029;28;20045;-79
2022/06/29 02:46:37;;;;;;;6.27;4.57;;;14.10;99.90;;;;;;4969641;28;20144;-81
2022/06/29 02:49:02;;;;;;;12.13;4.73;;;14.10;99.90;;;;;;4991923;28;20045;-80
2022/06/29 02:51:28;;;;;;;6.53;3.77;;;14.10;99.90;;;;;;4983149;28;20460;-80
2022/06/29 02:53:54;;;;;;;6.90;4.10;;;14.00;99.90;;;;;;4990965;28;20116;-79
2022/06/29 02:56:20;;;;;;;7.23;4.30;;;14.00;99.90;;;;;;5004195;28;20120;-76
2022/06/29 02:58:45;;;;;;;7.30;4.83;;;14.00;99.90;;;;;;4974067;28;20066;-76
2022/06/29 03:01:11;;;;;;;7.23;4.53;;;14.10;99.90;;;;;;4995114;28;20531;-77
2022/06/29 03:03:38;;;;;;;8.73;5.00;;;14.00;99.90;;;;;;4992827;28;20045;-77
2022/06/29 03:06:04;;;;;;;6.67;4.13;;;14.10;99.90;;;;;;5001305;28;20048;-76
2022/06/29 03:08:30;;;;;;;7.33;4.37;;;14.10;99.90;;;;;;4999566;28;20426;-76
2022/06/29 03:10:56;;;;;;;10.20;4.17;;;14.10;99.90;;;;;;4992168;28;20041;-77
2022/06/29 03:13:21;;;;;;;8.60;3.97;;;14.00;99.90;;;;;;4990731;28;20527;-77
2022/06/29 03:15:47;;;;;;;8.73;4.67;;;14.10;99.90;;;;;;4975649;28;20087;-77
2022/06/29 03:18:13;;;;;;;6.47;4.27;;;14.00;99.90;;;;;;5001368;28;20053;-76
2022/06/29 03:20:40;;;;;;;4.77;4.03;;;14.00;99.90;;;;;;5011184;28;20037;-77
2022/06/29 03:23:05;;;;;;;5.80;4.50;;;14.10;99.90;;;;;;5016193;28;20059;-77
2022/06/29 03:25:31;;;;;;;8.57;4.50;;;14.10;99.90;;;;;;4992012;28;20128;-77
2022/06/29 03:27:57;;;;;;;5.23;3.97;;;14.00;99.90;;;;;;4970685;28;20041;-77
2022/06/29 03:30:23;;;;;;;4.27;3.73;;;14.10;99.90;;;;;;4996371;28;20112;-76
2022/06/29 03:32:48;;;;;;;6.73;4.63;;;14.10;99.90;;;;;;4996760;28;20046;-77
2022/06/29 03:35:14;;;;;;;6.20;4.20;;;14.00;99.90;;;;;;4979623;28;20046;-76
2022/06/29 03:37:41;;;;;;;7.53;3.87;;;14.00;99.90;;;;;;5037451;28;20103;-77
2022/06/29 03:40:08;;;;;;;6.50;4.17;;;14.10;99.90;;;;;;4987892;28;20046;-77
2022/06/29 03:42:34;;;;;;;5.33;3.87;;;14.10;99.90;;;;;;5014432;28;20454;-77
2022/06/29 03:44:59;;;;;;;8.03;4.63;;;14.10;99.90;;;;;;5024091;28;20050;-76
2022/06/29 03:47:25;;;;;;;8.17;4.50;;;14.10;99.90;;;;;;4988060;28;20096;-77
2022/06/29 03:49:52;;;;;;;9.17;4.67;;;14.10;99.90;;;;;;4987896;28;20042;-76
2022/06/29 03:52:17;;;;;;;5.20;4.60;;;14.10;99.90;;;;;;4995378;28;20474;-77
2022/06/29 03:54:44;;;;;;;7.23;4.27;;;14.10;99.90;;;;;;5011725;28;20038;-76
2022/06/29 03:57:10;;;;;;;6.30;5.07;;;14.20;99.90;;;;;;5007438;28;20081;-77
2022/06/29 03:59:36;;;;;;;6.07;4.40;;;14.20;99.90;;;;;;4992748;28;20092;-77
2022/06/29 04:02:02;;;;;;;6.27;4.30;;;14.20;99.90;;;;;;4987058;28;20038;-76
2022/06/29 04:04:28;;;;;;;5.90;4.00;;;14.20;99.90;;;;;;5033049;28;20129;-77
2022/06/29 04:06:53;;;;;;;7.97;5.03;;;14.20;99.90;;;;;;5007136;28;20464;-77
2022/06/29 04:09:19;;;;;;;6.60;4.23;;;14.20;99.90;;;;;;5007960;28;20049;-77
2022/06/29 04:11:49;;;;;;;6.37;4.10;;;14.30;99.90;;;;;;5006665;28;20128;-77
2022/06/29 04:14:15;;;;;;;6.90;4.13;;;14.30;99.90;;;;;;5007878;28;20466;-76
2022/06/29 04:16:41;;;;;;;7.70;4.63;;;14.30;99.90;;;;;;5019743;28;20132;-77
2022/06/29 04:19:07;;;;;;;7.20;4.47;;;14.30;99.90;;;;;;4996373;28;20038;-77
2022/06/29 04:21:33;;;;;;;5.93;4.00;;;14.30;99.90;;;;;;5011775;28;20136;-76
2022/06/29 04:23:59;;;;;;;6.70;4.77;;;14.30;99.90;;;;;;5003371;28;20096;-77
2022/06/29 04:26:24;;;;;;;7.13;4.63;;;14.40;99.90;;;;;;4986389;28;20061;-76
2022/06/29 04:28:51;;;;;;;5.60;4.87;;;14.40;99.90;;;;;;5008045;28;20415;-77
2022/06/29 04:31:17;;;;;;;5.37;4.70;;;14.50;99.90;;;;;;4985874;28;20054;-77
2022/06/29 04:33:43;;;;;;;6.60;4.77;;;14.50;99.90;;;;;;5038859;28;20049;-77
2022/06/29 04:36:08;;;;;;;6.93;5.00;;;14.50;99.90;;;;;;5006222;28;20050;-76
2022/06/29 04:38:34;;;;;;;5.93;4.40;;;14.50;99.90;;;;;;4988048;28;20041;-76
2022/06/29 04:41:00;;;;;;;7.70;5.10;;;14.50;99.90;;;;;;5007013;28;20492;-77
2022/06/29 04:43:27;;;;;;;6.70;4.77;;;14.60;99.90;;;;;;5014831;28;20043;-77
2022/06/29 04:48:38;;;;;;;6.93;4.50;;;14.60;99.90;;;;;;5005500;28;20049;-77
2022/06/29 04:51:04;;;;;;;7.17;4.73;;;14.70;99.90;;;;;;5009230;28;20056;-77
2022/06/29 04:53:30;;;;;;;8.17;5.37;;;14.70;99.90;;;;;;5002373;28;20045;-77
2022/06/29 04:55:55;;;;;;;7.93;5.47;;;14.70;99.90;;;;;;4974372;28;20487;-77
2022/06/29 04:58:21;;;;;;;5.73;5.13;;;14.70;99.90;;;;;;4997910;28;20041;-77
2022/06/29 05:00:47;;;;;;;8.37;5.13;;;14.70;99.90;;;;;;4990505;28;20201;-76
2022/06/29 05:03:14;;;;;;;5.30;4.80;;;14.70;99.90;;;;;;4993586;28;20049;-76
2022/06/29 05:05:40;;;;;;;8.33;5.20;;;14.80;99.90;;;;;;5021008;28;20054;-76
2022/06/29 05:08:06;;;;;;;6.67;5.43;;;14.80;99.90;;;;;;4997054;28;20059;-76
2022/06/29 05:10:32;;;;;;;6.13;5.00;;;14.80;99.90;;;;;;4988497;28;20495;-77
2022/06/29 05:12:58;;;;;;;5.60;4.87;;;14.90;99.90;;;;;;4993012;28;20060;-76
2022/06/29 05:15:24;;;;;;;5.93;4.70;;;15.00;99.90;;;;;;4977807;28;20088;-76
2022/06/29 05:17:49;;;;;;;6.23;4.80;;;15.00;99.90;;;;;;5038240;28;20041;-77
2022/06/29 05:20:19;;;;;;;6.83;4.90;;;15.10;99.90;;;;;;4976959;28;20055;-77
2022/06/29 05:22:45;;;;;;;5.60;5.00;;;15.10;99.90;;;;;;5010630;28;20077;-77
2022/06/29 05:25:11;;;;;;;6.80;4.23;;;15.20;99.90;;;;;;4998965;28;20452;-77
2022/06/29 05:27:37;;;;;;;6.03;3.90;;;15.20;99.90;;;;;;4987646;28;20042;-76
2022/06/29 05:30:03;;;;;;;9.20;5.27;;;15.30;99.90;;;;;;5002620;28;20132;-77
2022/06/29 05:32:29;;;;;;;5.03;4.53;;;15.30;99.90;;;;;;4997338;28;20098;-77
2022/06/29 05:34:55;;;;;;;7.10;4.60;;;15.50;99.90;;;;;;4997735;28;20045;-76
2022/06/29 05:37:22;;;;;;;6.43;4.37;;;16.10;99.90;;;;;;4981919;28;20042;-76
2022/06/29 05:39:48;;;;;;;6.30;4.30;;;16.70;99.90;;;;;;5011363;28;20049;-77
2022/06/29 05:42:14;;;;;;;7.73;4.37;;;16.90;99.90;;;;;;5000315;28;20033;-77
2022/06/29 05:44:40;;;;;;;6.57;3.90;;;17.00;99.90;;;;;;4979176;28;20480;-77
2022/06/29 05:47:07;;;;;;;6.23;4.90;;;17.00;99.90;;;;;;4989284;28;20037;-77
2022/06/29 05:49:33;;;;;;;6.20;4.03;;;16.90;99.90;;;;;;4981144;28;20104;-77
2022/06/29 05:51:59;;;;;;;6.80;4.07;;;16.90;99.90;;;;;;5009059;28;20046;-77
2022/06/29 05:54:26;;;;;;;6.00;4.03;;;16.90;99.90;;;;;;4977132;28;20069;-77
2022/06/29 05:56:51;;;;;;;7.17;3.53;;;17.00;99.90;;;;;;4978417;28;20037;-77
2022/06/29 05:59:17;;;;;;;11.37;3.80;;;17.00;99.90;;;;;;4980715;28;20116;-77
2022/06/29 06:01:43;;;;;;;8.57;4.33;;;17.00;99.90;;;;;;4999461;28;20124;-77
2022/06/29 06:04:09;;;;;;;6.23;3.83;;;17.10;99.90;;;;;;5004140;28;20049;-77
2022/06/29 06:06:34;;;;;;;4.03;3.37;;;17.30;99.90;;;;;;5036171;28;20511;-76
2022/06/29 06:09:00;;;;;;;5.67;3.87;;;17.60;99.90;;;;;;5012932;28;20072;-76
2022/06/29 06:11:27;;;;;;;4.43;3.50;;;17.70;99.90;;;;;;4986421;28;20053;-77
2022/06/29 06:13:53;;;;;;;5.03;3.70;;;17.80;99.90;;;;;;5001046;28;20057;-77
2022/06/29 06:16:19;;;;;;;6.67;4.03;;;17.70;99.90;;;;;;5000792;28;20045;-77
2022/06/29 06:18:45;;;;;;;4.33;3.73;;;17.60;99.90;;;;;;5014445;28;20084;-77
2022/06/29 06:21:10;;;;;;;4.90;3.70;;;17.60;99.90;;;;;;5007332;28;20606;-77
2022/06/29 06:23:36;;;;;;;8.00;3.70;;;17.60;99.90;;;;;;5010670;28;20049;-77
2022/06/29 06:26:02;;;;;;;4.60;3.40;;;17.60;99.90;;;;;;4989053;28;20046;-77
2022/06/29 06:28:29;;;;;;;4.47;3.37;;;17.70;99.90;;;;;;5005453;28;20504;-76
2022/06/29 06:30:55;;;;;;;5.73;3.83;;;17.60;99.90;;;;;;5009315;28;20129;-77
2022/06/29 06:33:22;;;;;;;6.80;3.40;;;17.70;99.90;;;;;;5010055;28;20145;-77
2022/06/29 06:35:48;;;;;;;3.93;3.50;;;17.70;99.90;;;;;;4989303;28;20433;-77
2022/06/29 06:38:14;;;;;;;4.80;3.13;;;17.70;99.90;;;;;;4999237;28;20050;-77
2022/06/29 06:43:24;;;;;;;6.03;3.30;;;17.90;99.90;;;;;;4997836;28;20392;-76
2022/06/29 06:45:51;;;;;;;6.50;3.10;;;17.90;99.90;;;;;;4999336;28;20042;-76
2022/06/29 06:48:17;;;;;;;10.47;3.70;;;17.90;99.90;;;;;;5004498;28;20046;-77
2022/06/29 06:50:43;;;;;;;4.60;2.80;;;18.00;99.90;;;;;;4996132;28;20119;-77
2022/06/29 06:53:09;;;;;;;5.77;3.10;;;18.10;99.90;;;;;;4985702;28;20052;-77
2022/06/29 06:55:35;;;;;;;5.97;2.90;;;18.10;99.90;;;;;;4990297;28;20414;-77
2022/06/29 06:58:03;;;;;;;4.10;2.80;;;18.20;99.90;;;;;;4984658;28;20042;-75
2022/06/29 07:00:30;;;;;;;4.47;2.37;;;18.30;99.90;;;;;;5004936;28;20053;-77
2022/06/29 07:02:57;;;;;;;6.23;2.80;;;18.40;99.90;;;;;;4986401;28;20045;-76
2022/06/29 07:05:23;;;;;;;4.37;2.43;;;18.50;99.90;;;;;;5009593;28;20099;-76
2022/06/29 07:07:49;;;;;;;6.07;2.30;;;18.60;99.90;;;;;;4981329;28;20120;-77
2022/06/29 07:10:14;;;;;;;3.63;2.00;;;18.80;99.90;;;;;;5015569;28;20591;-77
2022/06/29 07:12:40;;;;;;;4.33;2.17;;;18.90;99.90;;;;;;4982754;28;20042;-77
2022/06/29 07:15:06;;;;;;;5.20;2.20;;;19.10;99.90;;;;;;4998435;28;20056;-76
2022/06/29 07:17:32;;;;;;;4.57;2.40;;;19.10;99.90;;;;;;4990091;28;20041;-77
2022/06/29 07:19:59;;;;;;;3.80;2.10;;;19.20;99.90;;;;;;4984334;28;20518;-76
2022/06/29 07:22:25;;;;;;;6.07;1.77;;;19.30;99.90;;;;;;4972407;28;20050;-77
2022/06/29 07:24:50;;;;;;;4.57;2.00;;;19.40;99.90;;;;;;4983341;28;20230;-77
2022/06/29 07:27:16;;;;;;;6.20;1.70;;;19.40;99.90;;;;;;5002763;28;20037;-78
2022/06/29 07:29:42;;;;;;;4.57;1.63;;;19.50;99.90;;;;;;5017561;28;20057;-77
2022/06/29 07:32:08;;;;;;;6.53;2.00;;;19.60;99.90;;;;;;5002059;28;20052;-76
2022/06/29 07:34:34;;;;;;;4.67;1.63;;;19.80;99.90;;;;;;4983106;28;20056;-77
2022/06/29 07:37:01;;;;;;;6.57;1.73;;;19.90;99.90;;;;;;4983572;28;20406;-77
2022/06/29 07:39:30;;;;;;;2.83;1.80;;;20.00;99.90;;;;;;4985484;28;20077;-76
2022/06/29 07:41:55;;;;;;;4.40;1.60;;;20.10;99.90;;;;;;4982998;28;20045;-77
2022/06/29 07:44:21;;;;;;;6.53;1.60;;;20.30;99.90;;;;;;5003289;28;20112;-77
2022/06/29 07:46:47;;;;;;;8.00;2.00;;;20.40;99.90;;;;;;5000229;28;20495;-77
2022/06/29 07:49:13;;;;;;;4.03;1.70;;;20.40;99.90;;;;;;5010109;28;20085;-77
2022/06/29 07:51:38;;;;;;;3.10;1.50;;;20.50;99.90;;;;;;5000177;28;20038;-77
2022/06/29 07:54:05;;;;;;;3.07;1.60;;;20.50;99.90;;;;;;5002064;28;20049;-77
2022/06/29 07:56:33;;;;;;;4.47;2.00;;;20.70;99.90;;;;;;5001831;28;20068;-76
2022/06/29 07:59:01;;;;;;;3.23;1.30;;;20.80;99.90;;;;;;4983258;28;20030;-76
2022/06/29 08:01:27;;;;;;;3.30;1.60;;;20.90;99.90;;;;;;5009053;28;20052;-77
2022/06/29 08:03:54;;;;;;;6.87;1.67;;;21.00;99.90;;;;;;4956967;28;20046;-77
2022/06/29 08:06:20;;;;;;;6.77;1.50;;;21.20;99.90;;;;;;5035077;28;20034;-77
2022/06/29 08:08:45;;;;;;;3.77;1.40;;;21.30;99.90;;;;;;4987723;28;20148;-78
2022/06/29 08:11:12;;;;;;;3.90;1.60;;;21.40;99.90;;;;;;4983576;28;20047;-78
2022/06/29 08:13:38;;;;;;;5.27;1.50;;;21.60;99.90;;;;;;4968707;28;20295;-78
2022/06/29 08:16:04;;;;;;;5.13;1.67;;;21.70;99.90;;;;;;4998343;28;20030;-78
2022/06/29 08:18:30;;;;;;;2.40;1.43;;;21.80;99.90;;;;;;5004083;28;20103;-78
2022/06/29 08:20:56;;;;;;;3.07;1.53;;;21.90;99.90;;;;;;4990030;28;20041;-78
2022/06/29 08:23:21;;;;;;;4.87;1.50;;;22.00;99.90;;;;;;4981002;28;20053;-77
2022/06/29 08:25:47;;;;;;;5.33;1.60;;;22.10;99.90;;;;;;4993577;28;20041;-77
2022/06/29 08:28:14;;;;;;;4.50;2.07;;;22.20;99.90;;;;;;5004038;28;20056;-77
2022/06/29 08:30:40;;;;;;;5.18;1.50;;;22.20;99.90;;;;;;4994052;28;20041;-77
2022/06/29 08:33:06;;;;;;;4.17;1.57;;;22.30;99.90;;;;;;4982517;28;20041;-77
2022/06/29 08:35:34;;;;;;;3.77;1.60;;;22.30;99.90;;;;;;4981368;28;20514;-78
2022/06/29 08:38:00;;;;;;;4.10;1.30;;;22.30;99.90;;;;;;4980318;28;20045;-77
2022/06/29 08:40:28;;;;;;;5.55;1.75;;;22.40;99.90;;;;;;5004889;28;20064;-78
2022/06/29 08:42:54;;;;;;;3.65;1.40;;;22.40;99.90;;;;;;5016292;28;20049;-77
2022/06/29 08:45:21;;;;;;;3.35;1.40;;;22.50;99.90;;;;;;5030649;28;20037;-77
2022/06/29 08:47:47;;;;;;;4.63;1.55;;;22.70;99.90;;;;;;4974921;28;20127;-76
2022/06/29 08:50:13;;;;;;;3.28;1.42;;;22.90;99.90;;;;;;5005842;28;20076;-76
2022/06/29 08:52:40;;;;;;;4.10;1.58;;;23.10;99.90;;;;;;5011394;28;20049;-77
2022/06/29 08:55:08;;;;;;;6.50;1.90;;;23.40;99.90;;;;;;4986747;28;20045;-75
2022/06/29 08:57:35;;;;;;;3.33;1.30;;;23.70;99.90;;;;;;4995635;28;20038;-80
2022/06/29 09:00:02;;;;;;;3.30;1.50;;;23.80;98.80;;;;;;4992423;28;20091;-78
2022/06/29 09:02:29;;;;;;;2.20;1.50;;;24.00;98.80;;;;;;5021599;28;20050;-79
2022/06/29 09:04:55;;;;;;;3.38;1.40;;;24.10;97.00;;;;;;5016642;28;20050;-80
2022/06/29 09:07:21;;;;;;;3.42;1.40;;;24.20;96.10;;;;;;4983754;28;20041;-78
2022/06/29 09:09:59;;;;;;;4.75;1.38;;;24.20;94.80;;;;;;4975762;28;20119;-77
2022/06/29 09:12:25;;;;;;;2.65;1.40;;;24.20;94.30;;;;;;4997306;28;20068;-78
2022/06/29 09:27:17;;;;;;;2.88;1.50;;;24.40;94.50;;;;;;5106453;27;20399;-78
2022/06/29 09:29:45;;;;;;;3.45;1.30;;;25.30;89.60;;;;;;5086895;28;20028;-77
2022/06/29 09:32:16;;;;;;;6.10;1.80;;;25.40;90.20;;;;;;5074286;28;20043;-77
2022/06/29 09:34:44;;;;;;;1.42;1.20;;;25.40;90.90;;;;;;5086459;28;20047;-75
2022/06/29 09:37:12;;;;;;;2.92;1.60;;;25.50;90.70;;;;;;5072841;28;20051;-76
2022/06/29 09:39:40;;;;;;;2.97;1.55;;;25.50;90.00;;;;;;5087399;28;20036;-76
2022/06/29 09:42:07;;;;;;;5.05;1.50;;;25.60;90.80;;;;;;5089882;28;20459;-78
2022/06/29 09:44:35;;;;;;;2.65;1.60;;;25.80;91.20;;;;;;5079626;28;20457;-76
2022/06/29 09:47:05;;;;;;;3.13;1.42;;;26.00;90.30;;;;;;5065577;28;20065;-78
2022/06/29 09:49:33;;;;;;;6.47;1.63;;;26.30;91.00;;;;;;5087712;28;20401;-78
2022/06/29 09:52:01;;;;;;;8.15;1.42;;;26.50;90.70;;;;;;5060477;28;20046;-77
2022/06/29 09:54:32;;;;;;;5.65;1.98;;;26.50;91.10;;;;;;5074513;28;20040;-78
2022/06/29 09:56:59;;;;;;;7.47;1.73;;;26.40;91.20;;;;;;5086902;28;20069;-78
2022/06/29 10:02:34;;;;;;;5.10;1.58;;;26.50;91.00;;;;;;5087823;28;20429;-78
2022/06/29 10:02:34;;;;;;;4.78;1.63;;;26.90;91.10;;;;;;5088030;28;20089;-77
2022/06/29 10:05:04;;;;;;;3.33;1.67;;;27.20;89.70;;;;;;5084163;28;20036;-78
2022/06/29 10:07:32;;;;;;;5.03;1.60;;;27.40;88.30;;;;;;5062960;28;20048;-77
2022/06/29 10:09:59;;;;;;;3.75;1.48;;;27.60;87.10;;;;;;5064361;28;20139;-76
2022/06/29 10:15:26;;;;;;;3.65;1.67;;;27.50;90.30;;;;;;5104079;28;20149;-78
2022/06/29 10:18:03;;;;;;;4.35;1.67;;;27.20;91.40;;;;;;5071307;28;20043;-77
2022/06/29 10:20:38;;;;;;;2.60;1.40;;;27.00;92.50;;;;;;5080253;28;20055;-77
2022/06/29 10:23:03;;;;;;;3.35;1.58;;;26.90;92.70;;;;;;5081720;28;20043;-76
2022/06/29 10:25:29;;;;;;;2.92;1.70;;;26.80;92.20;;;;;;5086677;28;20189;-78
2022/06/29 10:28:09;;;;;;;4.03;1.70;;;26.70;91.50;;;;;;5075089;28;20043;-77
2022/06/29 10:30:37;;;;;;;7.47;1.65;;;26.80;92.50;;;;;;5056411;28;20048;-77
2022/06/29 10:33:33;;;;;;;111.10;24.35;;;26.90;93.50;;;;;;5059589;28;20515;-77
2022/06/29 10:36:10;;;;;;;153.55;47.88;;;26.90;94.70;;;;;;5057543;28;20032;-76
2022/06/29 10:39:10;;;;;;;97.78;40.85;;;26.90;95.60;;;;;;5072997;28;20059;-77
2022/06/29 10:44:54;;;;;;;14.02;6.43;;;27.40;94.10;;;;;;5074581;28;20040;-77
2022/06/29 10:47:21;;;;;;;7.07;2.75;;;28.10;94.20;;;;;;5059836;28;20506;-77
2022/06/29 10:50:09;;;;;;;10.18;3.55;;;28.40;89.90;;;;;;5066134;28;20048;-75
2022/06/29 10:52:37;;;;;;;3.95;1.85;;;28.80;89.30;;;;;;5039598;28;20048;-78
2022/06/29 10:55:03;;;;;;;3.47;2.28;;;29.00;85.90;;;;;;5046501;28;20048;-78
2022/06/29 10:57:31;;;;;;;10.43;2.35;;;29.10;84.10;;;;;;5071553;28;20040;-78
2022/06/29 10:59:57;;;;;;;3.63;1.80;;;29.10;87.60;;;;;;5073442;28;20055;-78
2022/06/29 11:02:23;;;;;;;12.23;1.98;;;29.00;86.30;;;;;;5072324;28;20391;-78
2022/06/29 11:04:50;;;;;;;3.42;1.55;;;28.80;82.70;;;;;;5074361;28;20040;-77
2022/06/29 11:12:48;;;;;;;3.40;1.83;;;29.00;86.40;;;;;;5069650;28;20410;-76
2022/06/29 11:17:58;;;;;;;7.78;1.88;;;28.80;87.20;;;;;;5052961;28;20044;-74
2022/06/29 11:20:25;;;;;;;3.72;1.75;;;29.10;86.80;;;;;;5073471;28;20059;-76
2022/06/29 11:22:52;;;;;;;3.72;1.80;;;29.40;84.80;;;;;;5074707;28;20097;-77
2022/06/29 11:25:18;;;;;;;3.13;1.92;;;29.50;80.80;;;;;;5027332;28;20123;-78
2022/06/29 11:27:44;;;;;;;3.33;1.98;;;29.70;81.60;;;;;;5025358;28;20048;-77
2022/06/29 11:30:11;;;;;;;4.53;2.00;;;29.70;81.60;;;;;;5073161;28;20071;-79
2022/06/29 11:32:42;;;;;;;4.63;2.10;;;29.50;82.20;;;;;;5048989;28;20052;-79
2022/06/29 11:35:09;;;;;;;6.50;1.92;;;29.40;85.00;;;;;;5086256;28;20136;-77
2022/06/29 11:37:37;;;;;;;3.47;1.80;;;29.40;87.80;;;;;;5062108;28;20063;-77
2022/06/29 11:40:03;;;;;;;3.67;1.90;;;29.30;88.30;;;;;;5051003;28;20040;-78
2022/06/29 11:45:17;;;;;;;3.88;1.73;;;29.10;84.50;;;;;;5071665;28;20032;-78
2022/06/29 11:47:52;;;;;;;3.25;2.20;;;29.00;84.40;;;;;;5066938;28;20553;-78
2022/06/29 11:50:19;;;;;;;3.03;1.85;;;29.00;83.10;;;;;;5071752;28;20119;-79
2022/06/29 11:52:49;;;;;;;4.07;2.40;;;28.90;81.90;;;;;;5042870;28;20445;-79
2022/06/29 11:55:15;;;;;;;6.07;2.45;;;28.80;82.70;;;;;;5058281;28;20053;-78
2022/06/29 11:57:41;;;;;;;2.58;1.98;;;29.00;82.60;;;;;;5054870;28;20052;-77
2022/06/29 12:00:08;;;;;;;3.22;2.38;;;29.20;82.00;;;;;;5070451;28;20469;-76
2022/06/29 12:02:34;;;;;;;2.88;2.30;;;29.10;81.30;;;;;;5038631;28;20415;-76
2022/06/29 12:05:01;;;;;;;6.72;2.50;;;28.80;81.10;;;;;;5058790;28;20046;-76
2022/06/29 12:07:28;;;;;;;7.47;2.80;;;28.70;82.60;;;;;;5070733;28;20482;-78
2022/06/29 12:09:57;;;;;;;2.80;2.17;;;28.80;79.80;;;;;;5057363;28;20089;-76
2022/06/29 12:12:23;;;;;;;4.25;2.40;;;28.90;79.80;;;;;;5073232;28;20051;-78
2022/06/29 12:14:49;;;;;;;4.55;2.53;;;29.20;80.80;;;;;;5074302;28;20123;-76
2022/06/29 12:17:15;;;;;;;4.38;2.50;;;29.40;79.10;;;;;;5073263;28;20418;-77
2022/06/29 12:19:41;;;;;;;3.90;2.60;;;29.60;78.10;;;;;;5057018;28;20081;-77
2022/06/29 12:22:07;;;;;;;5.95;2.85;;;29.70;77.30;;;;;;5054758;28;20131;-76
2022/06/29 12:24:33;;;;;;;5.38;2.50;;;29.80;77.20;;;;;;5073327;28;20563;-77
2022/06/29 12:27:01;;;;;;;6.18;2.90;;;29.60;78.20;;;;;;5070895;28;20040;-76
2022/06/29 12:29:27;;;;;;;3.22;2.60;;;29.60;78.60;;;;;;5056609;28;20040;-75
2022/06/29 12:31:53;;;;;;;6.00;3.05;;;29.50;78.00;;;;;;5074053;28;20051;-76
2022/06/29 12:34:18;;;;;;;4.47;2.80;;;29.40;77.40;;;;;;5054597;28;20156;-76
2022/06/29 12:36:44;;;;;;;4.75;2.58;;;29.40;78.60;;;;;;5073850;28;20094;-77
2022/06/29 12:39:11;;;;;;;4.82;2.78;;;29.60;79.00;;;;;;5056501;28;20044;-77
2022/06/29 12:41:37;;;;;;;5.68;2.58;;;29.70;78.90;;;;;;5053836;28;20048;-75
2022/06/29 12:44:05;;;;;;;4.70;2.65;;;29.70;77.60;;;;;;5040163;28;20465;-76
2022/06/29 12:46:31;;;;;;;6.30;3.20;;;29.70;76.80;;;;;;5053931;28;20044;-75
2022/06/29 12:48:57;;;;;;;5.88;2.80;;;29.40;75.70;;;;;;5036530;28;20147;-75
2022/06/29 12:51:24;;;;;;;4.82;2.72;;;28.90;77.10;;;;;;5072895;28;20058;-76
2022/06/29 12:53:49;;;;;;;6.30;2.70;;;28.60;77.90;;;;;;5053651;28;20048;-75
2022/06/29 12:56:16;;;;;;;3.45;2.70;;;28.70;80.20;;;;;;5053455;28;20048;-76
2022/06/29 12:58:42;;;;;;;5.05;2.80;;;28.90;81.70;;;;;;5072850;28;20071;-78
2022/06/29 13:01:09;;;;;;;7.43;2.90;;;28.80;81.30;;;;;;5070644;28;20502;-77
2022/06/29 13:03:35;;;;;;;7.93;3.05;;;29.00;84.20;;;;;;5053493;28;20082;-77
2022/06/29 13:06:01;;;;;;;3.63;2.83;;;29.40;81.90;;;;;;5056670;28;20070;-76
2022/06/29 13:08:27;;;;;;;7.15;3.13;;;29.60;79.90;;;;;;5071434;28;20414;-75
2022/06/29 13:10:53;;;;;;;3.97;3.00;;;29.70;76.60;;;;;;5069756;28;20048;-75
2022/06/29 13:13:19;;;;;;;3.70;2.72;;;29.50;78.10;;;;;;5070307;28;20115;-75
2022/06/29 13:15:45;;;;;;;4.65;2.72;;;29.50;77.80;;;;;;5072524;28;20514;-74
2022/06/29 13:18:12;;;;;;;5.00;3.03;;;29.40;77.90;;;;;;5070020;28;20055;-75
2022/06/29 13:20:38;;;;;;;5.18;3.15;;;29.20;79.20;;;;;;5071280;28;20617;-76
2022/06/29 13:23:03;;;;;;;7.35;2.80;;;28.80;79.80;;;;;;5069950;28;20119;-75